Time;durP1;ratioP1;P1;durP2;ratioP2;P2;SDS_P1;SDS_P2;PMS_P1;PMS_P2;Temp;Humidity;BMP_temperature;BMP_pressure;BME280_temperature;BME280_humidity;BME280_pressure;Samples;Min_cycle;Max_cycle;Signal;HPM_P1;HPM_P2
2021/06/29 00:00:36;;;;;;;;;16.00;15.00;;;;;25.45;46.62;98688.72;6296100;27;96545;-63
2021/06/29 00:04:23;;;;;;;;;18.50;18.25;;;;;25.43;46.70;98677.19;6284890;27;96873;-63
2021/06/29 00:07:56;;;;;;;;;22.00;21.00;;;;;25.46;46.86;98684.81;6340133;27;96227;-62
2021/06/29 00:11:37;;;;;;;;;22.00;20.80;;;;;25.46;47.06;98684.81;6267857;27;96430;-64
2021/06/29 00:15:07;;;;;;;;;18.00;18.00;;;;;25.45;47.39;98686.78;6286132;27;96491;-64
2021/06/29 00:18:39;;;;;;;;;21.00;20.00;;;;;25.41;47.83;98677.50;6344132;27;96441;-63
2021/06/29 00:22:16;;;;;;;;;22.00;21.60;;;;;25.36;47.82;98674.09;6297060;27;96219;-62
2021/06/29 00:25:45;;;;;;;;;22.00;21.00;;;;;25.31;47.89;98675.06;6304855;27;96448;-64
2021/06/29 00:29:16;;;;;;;;;22.40;22.00;;;;;25.24;48.07;98666.44;6344487;27;96156;-64
2021/06/29 00:32:51;;;;;;;;;21.50;20.50;;;;;25.15;48.43;98660.13;6300995;27;96361;-63
2021/06/29 00:36:23;;;;;;;;;25.40;22.00;;;;;25.08;48.67;98658.94;6345485;27;96446;-62
2021/06/29 00:40:05;;;;;;;;;22.50;20.00;;;;;25.05;48.78;98665.13;6262292;27;97016;-64
2021/06/29 00:43:47;;;;;;;;;22.20;21.20;;;;;24.99;48.96;98659.75;6302108;27;97019;-64
2021/06/29 00:47:18;;;;;;;;;23.00;22.00;;;;;24.94;49.00;98664.59;6346730;27;96167;-63
2021/06/29 00:50:51;;;;;;;;;25.67;23.00;;;;;24.93;49.14;98657.47;6342611;27;96756;-63
2021/06/29 00:54:23;;;;;;;;;26.40;26.40;;;;;24.89;49.34;98660.06;6350000;27;96643;-64
2021/06/29 00:57:56;;;;;;;;;23.00;22.40;;;;;24.62;49.57;98620.88;6289317;27;96572;-65
2021/06/29 01:01:29;;;;;;;;;24.00;21.67;;;;;24.80;49.76;98648.16;6336893;27;96716;-63
2021/06/29 01:05:04;;;;;;;;;22.00;20.00;;;;;24.73;49.73;98647.81;6343671;27;97024;-65
2021/06/29 01:08:36;;;;;;;;;24.00;23.00;;;;;24.63;49.91;98636.28;6357414;27;96176;-63
2021/06/29 01:12:21;;;;;;;;;23.20;21.20;;;;;24.67;50.01;98643.59;6290277;27;96671;-63
2021/06/29 01:16:03;;;;;;;;;19.80;19.20;;;;;24.64;50.15;98638.72;6260929;27;96732;-63
2021/06/29 01:19:44;;;;;;;;;22.40;21.00;;;;;24.56;50.42;98639.50;6342039;27;96220;-63
2021/06/29 01:23:21;;;;;;;;;23.67;22.00;;;;;24.51;50.72;98636.88;6281488;27;96860;-63
2021/06/29 01:26:57;;;;;;;;;21.80;20.00;;;;;24.47;50.73;98638.66;6294326;27;96410;-63
2021/06/29 01:34:22;;;;;;;;;22.00;21.40;;;;;24.43;50.40;98635.75;6292450;27;96304;-65
2021/06/29 01:37:54;;;;;;;;;22.25;20.25;;;;;24.42;50.75;98641.56;6350486;27;96397;-65
2021/06/29 01:41:27;;;;;;;;;21.25;20.00;;;;;24.43;50.51;98634.91;6344755;27;96360;-65
2021/06/29 01:45:00;;;;;;;;;24.00;22.50;;;;;24.41;50.49;98640.75;6341218;27;96482;-63
2021/06/29 01:48:47;;;;;;;;;25.40;23.00;;;;;24.44;50.85;98629.06;6283085;27;96466;-63
2021/06/29 01:52:27;;;;;;;;;23.00;20.60;;;;;24.43;50.82;98626.66;6264958;27;96660;-65
2021/06/29 01:55:59;;;;;;;;;23.00;20.00;;;;;24.39;50.64;98629.22;6338545;27;96489;-64
2021/06/29 01:59:32;;;;;;;;;23.60;20.20;;;;;24.22;51.09;98587.84;6341700;27;96863;-64
2021/06/29 02:03:16;;;;;;;;;22.00;20.00;;;;;24.43;50.99;98621.16;6282682;27;96805;-63
2021/06/29 02:06:48;;;;;;;;;23.00;22.00;;;;;24.41;51.36;98620.63;6347468;27;96529;-64
2021/06/29 02:10:21;;;;;;;;;24.20;22.20;;;;;24.40;51.46;98617.06;6356728;27;96800;-63
2021/06/29 02:14:08;;;;;;;;;25.40;23.00;;;;;24.38;51.29;98613.84;6283586;27;96934;-64
2021/06/29 02:17:41;;;;;;;;;23.60;23.00;;;;;24.38;51.35;98618.53;6344768;27;96038;-63
2021/06/29 02:21:15;;;;;;;;;25.00;22.60;;;;;24.37;51.14;98619.66;6339687;27;96786;-64
2021/06/29 02:24:47;;;;;;;;;26.00;23.00;;;;;24.33;51.22;98618.66;6339545;27;96298;-64
2021/06/29 02:28:20;;;;;;;;;22.00;21.00;;;;;24.31;51.36;98607.16;6336862;27;96369;-63
2021/06/29 02:31:52;;;;;;;;;24.40;23.00;;;;;24.30;51.31;98614.59;6335755;27;96247;-65
2021/06/29 02:35:25;;;;;;;;;24.60;22.40;;;;;24.30;51.39;98614.59;6343426;27;96195;-63
2021/06/29 02:39:04;;;;;;;;;25.00;24.00;;;;;24.29;51.77;98617.69;6305065;27;96353;-63
2021/06/29 02:42:37;;;;;;;;;22.20;21.20;;;;;24.28;51.73;98614.13;6342150;27;96174;-65
2021/06/29 02:46:09;;;;;;;;;24.00;22.20;;;;;24.25;51.70;98616.66;6340114;27;96341;-64
2021/06/29 02:49:42;;;;;;;;;25.60;23.00;;;;;24.21;51.80;98624.78;6348365;27;97356;-64
2021/06/29 02:53:23;;;;;;;;;28.60;24.00;;;;;24.23;51.75;98621.72;6247495;27;96428;-64
2021/06/29 02:56:55;;;;;;;;;25.00;23.00;;;;;24.23;51.76;98621.72;6339293;27;96760;-64
2021/06/29 03:00:28;;;;;;;;;25.00;22.60;;;;;24.16;52.17;98622.13;6346291;27;96442;-63
2021/06/29 03:04:06;;;;;;;;;25.00;24.00;;;;;24.13;52.37;98622.75;6305699;27;96691;-64
2021/06/29 03:07:38;;;;;;;;;26.00;25.00;;;;;24.16;52.44;98625.72;6341310;27;96260;-64
2021/06/29 03:11:10;;;;;;;;;23.00;22.00;;;;;24.17;52.09;98626.53;6338418;27;96826;-64
2021/06/29 03:14:43;;;;;;;;;23.00;21.25;;;;;24.10;52.39;98620.63;6339860;27;96249;-64
2021/06/29 03:18:12;;;;;;;;;25.40;24.40;;;;;24.13;52.33;98615.31;6310448;27;96731;-64
2021/06/29 03:21:47;;;;;;;;;26.00;24.00;;;;;24.15;52.50;98620.50;6299333;27;96762;-63
2021/06/29 03:25:19;;;;;;;;;25.00;22.20;;;;;24.20;52.07;98627.84;6353794;27;96869;-64
2021/06/29 03:28:52;;;;;;;;;22.80;21.40;;;;;24.12;52.70;98623.88;6353491;27;96462;-63
2021/06/29 03:32:24;;;;;;;;;25.60;23.00;;;;;24.06;52.89;98631.47;6343826;27;96684;-65
2021/06/29 03:35:57;;;;;;;;;24.40;23.40;;;;;24.05;52.99;98637.28;6339602;27;96253;-64
2021/06/29 03:39:30;;;;;;;;;26.00;24.40;;;;;24.05;52.65;98629.84;6350586;27;96438;-64
2021/06/29 03:43:07;;;;;;;;;23.00;22.50;;;;;24.03;52.43;98626.59;6298003;27;96411;-64
2021/06/29 03:46:40;;;;;;;;;24.00;23.00;;;;;23.99;52.23;98608.28;6337803;27;96440;-64
2021/06/29 03:50:13;;;;;;;;;23.80;21.80;;;;;24.19;52.11;98632.53;6355321;27;96858;-64
2021/06/29 03:53:45;;;;;;;;;21.75;20.50;;;;;24.28;51.20;98638.91;6349855;27;96185;-63
2021/06/29 03:57:20;;;;;;;;;20.00;20.00;;;;;24.41;51.06;98638.00;6341539;27;96746;-63
2021/06/29 04:00:52;;;;;;;;;21.00;20.00;;;;;24.55;50.34;98640.63;6344813;27;97983;-64
2021/06/29 04:04:24;;;;;;;;;23.00;21.00;;;;;24.69;49.93;98643.25;6344603;27;97073;-64
2021/06/29 04:07:57;;;;;;;;;23.20;22.20;;;;;24.85;50.04;98636.19;6349232;27;96371;-63
2021/06/29 04:11:44;;;;;;;;;24.00;22.00;;;;;25.07;50.20;98638.03;6297569;27;96274;-65
2021/06/29 04:15:28;;;;;;;;;21.80;21.00;;;;;25.22;49.61;98634.78;6286434;27;96602;-65
2021/06/29 04:24:05;;;;;;;;;23.40;22.00;;;;;25.62;48.48;98624.44;6353618;27;96426;-64
2021/06/29 04:27:36;;;;;;;;;21.80;20.80;;;;;25.75;47.97;98629.78;6344312;27;96338;-64
2021/06/29 04:31:18;;;;;;;;;21.00;20.00;;;;;25.90;47.31;98625.69;6269865;27;96423;-63
2021/06/29 04:34:51;;;;;;;;;25.00;22.00;;;;;25.99;46.60;98618.19;6349239;27;96665;-65
2021/06/29 04:48:45;;;;;;;;;22.33;20.33;;;;;26.43;46.20;98619.69;6226853;27;96568;-63
2021/06/29 04:52:18;;;;;;;;;22.60;21.00;;;;;26.51;45.94;98609.72;6340316;27;96484;-65
2021/06/29 04:55:50;;;;;;;;;22.00;20.00;;;;;26.58;45.86;98612.78;6306127;27;96432;-64
2021/06/29 04:59:22;;;;;;;;;22.00;21.60;;;;;26.61;45.80;98614.88;6344649;27;96633;-64
2021/06/29 05:02:55;;;;;;;;;23.00;22.00;;;;;26.70;45.43;98613.69;6340502;27;96999;-64
2021/06/29 05:06:36;;;;;;;;;21.20;21.00;;;;;26.73;44.78;98610.25;6285980;27;96373;-63
2021/06/29 05:10:16;;;;;;;;;24.00;23.00;;;;;26.79;45.75;98615.59;6279536;27;97540;-64
2021/06/29 05:13:51;;;;;;;;;22.00;21.00;;;;;26.90;45.26;98614.91;6350314;27;96320;-64
2021/06/29 05:17:24;;;;;;;;;23.00;22.25;;;;;27.13;44.91;98612.63;6344261;27;96372;-63
2021/06/29 05:20:58;;;;;;;;;24.80;22.80;;;;;27.27;44.59;98615.94;6344448;27;96633;-62
2021/06/29 05:24:31;;;;;;;;;24.60;24.00;;;;;27.39;43.89;98621.53;6337924;27;96427;-64
2021/06/29 05:28:05;;;;;;;;;22.40;20.40;;;;;27.53;43.86;98619.31;6355899;27;96182;-63
2021/06/29 05:31:38;;;;;;;;;22.75;21.25;;;;;27.63;43.66;98601.47;6335919;27;97285;-63
2021/06/29 05:35:11;;;;;;;;;19.60;19.60;;;;;27.41;41.97;98596.28;6294325;27;97018;-63
2021/06/29 05:38:43;;;;;;;;;20.40;18.40;;;;;27.49;42.54;98606.50;6342760;27;96389;-62
2021/06/29 05:42:16;;;;;;;;;19.00;18.00;;;;;27.68;42.11;98606.81;6340708;27;96109;-63
2021/06/29 05:45:48;;;;;;;;;20.67;19.00;;;;;27.84;41.69;98618.06;6352473;27;96947;-64
2021/06/29 05:49:26;;;;;;;;;19.50;18.50;;;;;28.02;41.55;98605.63;6301082;27;97204;-66
2021/06/29 05:52:58;;;;;;;;;18.00;17.00;;;;;28.14;40.92;98618.75;6318544;27;96194;-63
2021/06/29 05:56:31;;;;;;;;;19.50;18.25;;;;;28.28;41.00;98614.50;6341233;27;96228;-63
2021/06/29 06:00:05;;;;;;;;;16.80;16.00;;;;;28.46;41.59;98597.63;6349843;27;97062;-64
2021/06/29 06:03:39;;;;;;;;;18.80;16.40;;;;;28.62;41.04;98593.84;6291865;27;97023;-62
2021/06/29 06:07:12;;;;;;;;;19.40;17.80;;;;;28.67;40.87;98590.81;6341632;27;96774;-61
2021/06/29 06:10:45;;;;;;;;;21.50;20.00;;;;;28.65;40.50;98607.00;6345327;27;96922;-61
2021/06/29 06:14:19;;;;;;;;;20.50;20.00;;;;;28.70;41.54;98598.44;6291373;27;96174;-63
2021/06/29 06:17:51;;;;;;;;;21.00;20.00;;;;;28.80;41.98;98598.00;6342275;27;96135;-63
2021/06/29 06:21:24;;;;;;;;;19.00;18.00;;;;;28.99;41.72;98599.34;6331567;27;96703;-62
2021/06/29 06:24:58;;;;;;;;;18.60;17.60;;;;;29.16;40.91;98591.59;6350079;27;96212;-64
2021/06/29 06:28:30;;;;;;;;;19.20;19.00;;;;;29.27;40.55;98589.13;6347330;27;96376;-62
2021/06/29 06:32:04;;;;;;;;;17.75;16.75;;;;;29.35;40.25;98599.31;6341293;27;96334;-64
2021/06/29 06:35:36;;;;;;;;;25.00;21.00;;;;;29.38;39.65;98595.00;6359371;27;96787;-62
2021/06/29 06:39:07;;;;;;;;;19.40;18.00;;;;;29.47;40.32;98592.91;6312468;27;96477;-64
2021/06/29 06:42:46;;;;;;;;;20.00;17.25;;;;;29.47;40.17;98584.56;6349652;27;96318;-64
2021/06/29 06:46:20;;;;;;;;;18.80;18.00;;;;;29.37;40.12;98555.31;6342741;27;96566;-66
2021/06/29 06:50:06;;;;;;;;;20.40;18.00;;;;;29.81;39.91;98586.69;6283690;27;96858;-63
2021/06/29 06:53:41;;;;;;;;;19.40;18.40;;;;;30.19;40.59;98590.91;6341300;27;96388;-62
2021/06/29 06:57:13;;;;;;;;;19.00;18.00;;;;;30.57;40.03;98591.13;6342703;27;96869;-64
2021/06/29 07:00:51;;;;;;;;;19.40;17.00;;;;;30.84;39.18;98594.91;6295848;27;96392;-65
2021/06/29 07:04:24;;;;;;;;;17.40;16.40;;;;;30.94;38.28;98586.00;6348294;27;96206;-61
2021/06/29 07:07:56;;;;;;;;;18.00;17.25;;;;;31.14;38.26;98578.53;6350518;27;96990;-61
2021/06/29 07:11:29;;;;;;;;;16.60;16.00;;;;;31.30;37.79;98573.69;6356016;27;96694;-64
2021/06/29 07:15:02;;;;;;;;;19.00;17.00;;;;;31.61;38.26;98576.38;6350919;27;96923;-62
2021/06/29 07:18:34;;;;;;;;;19.00;18.00;;;;;31.85;36.77;98566.06;6345622;27;96750;-61
2021/06/29 07:21:49;;;;;;;;;20.00;18.00;;;;;31.87;36.90;98563.69;6250431;27;96427;-63
2021/06/29 07:25:06;;;;;;;;;19.00;18.00;;;;;31.97;36.54;98568.66;6259143;27;96313;-61
2021/06/29 07:28:21;;;;;;;;;17.80;17.20;;;;;31.72;36.72;98534.75;6276875;27;96752;-62
2021/06/29 07:31:36;;;;;;;;;18.80;17.20;;;;;31.85;36.76;98557.69;6236910;27;96362;-64
2021/06/29 07:34:51;;;;;;;;;18.33;17.33;;;;;32.02;36.87;98563.59;6281666;27;96849;-64
2021/06/29 07:38:07;;;;;;;;;17.00;16.60;;;;;32.17;37.09;98562.69;6249831;27;96791;-64
2021/06/29 07:41:23;;;;;;;;;18.50;17.00;;;;;32.15;36.77;98555.88;6254924;27;96440;-64
2021/06/29 07:44:39;;;;;;;;;19.00;18.40;;;;;32.22;36.06;98554.00;6253197;27;97029;-63
2021/06/29 07:47:56;;;;;;;;;19.40;17.00;;;;;32.28;37.02;98559.28;6251799;27;96436;-64
2021/06/29 07:51:11;;;;;;;;;18.50;17.50;;;;;32.58;36.75;98554.59;6317066;27;96752;-64
2021/06/29 07:54:24;;;;;;;;;17.60;17.00;;;;;32.72;35.85;98534.50;6291306;27;1363831;-62
2021/06/29 07:57:40;;;;;;;;;18.00;18.00;;;;;33.08;35.44;98548.59;6325352;27;97238;-62
2021/06/29 08:00:56;;;;;;;;;20.50;19.50;;;;;33.21;35.19;98546.38;6309304;27;96815;-64
2021/06/29 08:04:11;;;;;;;;;22.00;21.00;;;;;33.27;35.42;98555.22;6256276;27;97172;-64
2021/06/29 08:07:28;;;;;;;;;23.60;22.00;;;;;33.15;35.09;98552.63;6249574;27;96265;-64
2021/06/29 08:10:42;;;;;;;;;23.40;20.60;;;;;33.00;35.46;98560.00;6279226;27;96954;-63
2021/06/29 08:13:57;;;;;;;;;21.00;21.00;;;;;32.92;35.98;98559.13;6325855;27;96520;-62
2021/06/29 08:17:13;;;;;;;;;20.00;19.00;;;;;33.11;34.95;98555.38;6356765;27;96641;-64
2021/06/29 08:20:27;;;;;;;;;22.00;20.40;;;;;33.23;33.91;98546.00;6255280;27;96946;-63
2021/06/29 08:23:42;;;;;;;;;22.00;21.00;;;;;33.24;34.61;98550.38;6331626;27;96745;-64
2021/06/29 08:26:57;;;;;;;;;19.00;18.00;;;;;33.18;33.92;98547.16;6244984;27;96539;-64
2021/06/29 08:30:13;;;;;;;;;16.00;15.00;;;;;33.02;33.21;98554.88;6306447;27;96889;-63
2021/06/29 08:33:29;;;;;;;;;17.40;17.20;;;;;33.27;35.15;98546.84;6247236;27;96561;-65
2021/06/29 08:36:44;;;;;;;;;19.50;17.50;;;;;33.58;34.34;98545.59;6256693;27;96629;-64
2021/06/29 08:39:59;;;;;;;;;16.00;16.00;;;;;33.71;31.57;98558.97;6230300;27;96213;-63
2021/06/29 08:43:14;;;;;;;;;13.60;13.00;;;;;33.74;31.12;98560.19;6272225;27;96229;-63
2021/06/29 08:46:29;;;;;;;;;15.67;14.67;;;;;33.77;31.39;98535.06;6254610;27;96745;-65
2021/06/29 08:49:44;;;;;;;;;16.00;15.00;;;;;34.07;29.65;98540.53;6331179;27;96296;-63
2021/06/29 08:53:00;;;;;;;;;14.00;13.00;;;;;34.17;29.60;98545.44;6255096;27;96354;-64
2021/06/29 08:56:15;;;;;;;;;12.75;12.75;;;;;34.34;29.15;98553.22;6251936;27;96667;-64
2021/06/29 08:59:31;;;;;;;;;14.60;13.60;;;;;34.35;29.11;98538.03;6249695;27;96616;-64
2021/06/29 09:02:45;;;;;;;;;12.40;12.40;;;;;34.25;29.20;98541.56;6251315;27;96543;-64
2021/06/29 09:06:00;;;;;;;;;13.50;13.50;;;;;34.22;29.58;98533.91;6314830;27;96723;-64
2021/06/29 09:09:27;;;;;;;;;11.40;11.40;;;;;33.95;29.31;98540.84;6254252;27;96827;-64
2021/06/29 09:12:54;;;;;;;;;13.60;13.00;;;;;33.68;29.54;98539.34;6259283;27;97022;-65
2021/06/29 09:16:10;;;;;;;;;11.40;11.40;;;;;33.34;29.92;98542.13;6257960;27;96922;-62
2021/06/29 09:19:36;;;;;;;;;13.60;13.00;;;;;33.15;30.49;98538.66;6257529;27;96481;-63
2021/06/29 09:22:51;;;;;;;;;10.80;10.80;;;;;32.73;30.75;98545.28;6232611;27;96456;-62
2021/06/29 09:26:08;;;;;;;;;14.20;13.20;;;;;32.31;31.02;98548.16;6226578;27;96736;-62
2021/06/29 09:29:37;;;;;;;;;12.00;12.00;;;;;31.91;32.35;98547.88;6300746;27;96989;-64
2021/06/29 09:32:52;;;;;;;;;13.40;13.00;;;;;31.64;34.60;98555.31;6241303;27;97000;-63
2021/06/29 09:36:08;;;;;;;;;13.50;13.25;;;;;31.38;38.59;98547.59;6275957;27;96605;-62
2021/06/29 09:39:23;;;;;;;;;14.00;13.00;;;;;31.15;39.23;98533.59;6222244;27;96956;-62
2021/06/29 09:42:39;;;;;;;;;14.00;13.00;;;;;30.91;39.35;98542.19;6246719;27;96911;-62
2021/06/29 09:45:57;;;;;;;;;12.80;12.00;;;;;30.69;40.21;98545.69;6235055;27;96266;-63
2021/06/29 09:49:16;;;;;;;;;14.00;13.60;;;;;30.44;41.89;98517.25;6233718;27;97126;-62
2021/06/29 09:52:34;;;;;;;;;15.75;14.75;;;;;30.29;42.98;98540.31;6237869;27;96548;-61
2021/06/29 09:55:53;;;;;;;;;16.00;14.00;;;;;30.23;46.23;98533.41;6239387;27;97018;-60
2021/06/29 09:59:15;;;;;;;;;17.00;17.00;;;;;30.22;46.48;98532.59;6251803;27;97039;-62
2021/06/29 10:02:31;;;;;;;;;14.00;14.00;;;;;30.38;44.71;98532.59;6246162;27;97295;-63
2021/06/29 10:05:46;;;;;;;;;15.00;14.00;;;;;30.55;42.67;98521.09;6226298;27;96626;-61
2021/06/29 10:09:05;;;;;;;;;15.00;14.50;;;;;30.72;43.81;98520.72;6314536;27;96415;-62
2021/06/29 10:12:28;;;;;;;;;13.00;12.00;;;;;30.84;43.05;98519.75;6239846;27;96508;-61
2021/06/29 10:15:44;;;;;;;;;13.60;12.60;;;;;31.11;41.60;98523.56;6304258;27;97443;-60
2021/06/29 10:22:33;;;;;;;;;14.20;12.20;;;;;31.89;42.31;98517.56;6302641;27;96768;-60
2021/06/29 10:25:48;;;;;;;;;14.60;13.00;;;;;32.11;39.65;98513.16;6237780;27;96918;-61
2021/06/29 10:29:05;;;;;;;;;14.00;13.00;;;;;32.19;39.06;98504.56;6237458;27;96310;-60
2021/06/29 10:32:25;;;;;;;;;14.25;13.50;;;;;32.14;38.75;98499.31;6237966;27;96681;-64
2021/06/29 10:35:42;;;;;;;;;15.00;14.00;;;;;32.24;38.66;98497.84;6240677;27;96609;-62
2021/06/29 10:38:59;;;;;;;;;13.50;12.00;;;;;32.15;38.58;98495.34;6238353;27;96526;-62
2021/06/29 10:42:18;;;;;;;;;16.60;14.00;;;;;32.07;40.06;98490.78;6229618;27;96931;-62
2021/06/29 10:45:37;;;;;;;;;15.80;13.80;;;;;32.28;41.06;98487.56;6221141;27;96556;-62
2021/06/29 10:48:52;;;;;;;;;14.40;12.00;;;;;32.57;39.47;98491.56;6331851;27;96390;-61
2021/06/29 10:52:30;;;;;;;;;13.50;13.50;;;;;32.79;38.69;98487.94;6238837;27;96554;-63
2021/06/29 10:55:49;;;;;;;;;12.80;12.80;;;;;33.22;39.24;98485.72;6250394;27;96956;-62
2021/06/29 10:59:16;;;;;;;;;14.00;14.00;;;;;33.37;36.30;98499.47;6327496;27;96353;-62
2021/06/29 11:02:36;;;;;;;;;12.60;12.00;;;;;33.41;35.77;98486.34;6235342;27;96258;-60
2021/06/29 11:06:02;;;;;;;;;12.80;12.00;;;;;33.37;35.53;98477.13;6263558;27;97348;-61
2021/06/29 11:09:22;;;;;;;;;12.75;12.75;;;;;33.30;36.72;98488.19;6238443;27;96376;-59
2021/06/29 11:12:39;;;;;;;;;13.00;12.00;;;;;33.41;36.54;98479.94;6260622;27;96221;-61
2021/06/29 11:15:56;;;;;;;;;13.25;13.00;;;;;33.67;36.14;98485.47;6312752;27;96678;-62
2021/06/29 11:19:11;;;;;;;;;12.00;12.00;;;;;34.14;35.56;98498.66;6320226;27;96524;-62
2021/06/29 11:22:52;;;;;;;;;11.00;11.00;;;;;34.50;35.50;98493.34;6230200;27;96306;-62
2021/06/29 11:26:20;;;;;;;;;14.00;13.00;;;;;34.81;34.15;98494.75;6324399;27;97100;-62
2021/06/29 11:29:52;;;;;;;;;12.60;12.00;;;;;35.10;33.39;98491.69;6320177;27;96890;-61
2021/06/29 11:33:44;;;;;;;;;13.00;12.00;;;;;35.33;31.94;98493.44;6232007;27;96801;-61
2021/06/29 11:36:59;;;;;;;;;12.00;11.80;;;;;35.67;31.81;98497.56;6257135;27;96715;-62
2021/06/29 11:40:30;;;;;;;;;13.00;13.00;;;;;36.01;32.21;98487.56;6253179;27;97050;-64
2021/06/29 11:43:45;;;;;;;;;11.00;10.20;;;;;36.02;28.99;98477.94;6253223;27;96764;-63
2021/06/29 11:47:06;;;;;;;;;13.00;13.00;;;;;35.82;32.09;98461.91;6252452;27;96254;-62
2021/06/29 11:50:24;;;;;;;;;12.00;11.50;;;;;35.83;31.38;98457.88;6254697;27;96955;-63
2021/06/29 11:53:40;;;;;;;;;12.40;12.00;;;;;35.99;30.37;98467.53;6234441;27;96593;-62
2021/06/29 11:56:55;;;;;;;;;12.40;12.00;;;;;35.98;31.46;98448.28;6256725;27;96305;-64
2021/06/29 12:00:21;;;;;;;;;14.00;13.00;;;;;35.87;31.07;98436.25;6253922;27;96903;-63
2021/06/29 12:03:37;;;;;;;;;13.00;12.00;;;;;35.87;31.27;98436.25;6254964;27;96629;-62
2021/06/29 12:07:00;;;;;;;;;13.00;12.50;;;;;35.37;30.61;98438.16;6336134;27;97149;-63
2021/06/29 12:10:18;;;;;;;;;12.00;11.50;;;;;35.05;31.02;98430.44;6259557;27;96548;-62
2021/06/29 12:13:39;;;;;;;;;12.00;11.00;;;;;34.90;32.39;98428.78;6336321;27;96266;-62
2021/06/29 12:16:58;;;;;;;;;12.50;12.00;;;;;34.55;32.48;98426.56;6335312;27;96375;-63
2021/06/29 12:20:15;;;;;;;;;14.60;14.00;;;;;34.54;32.92;98415.78;6260215;27;96520;-63
2021/06/29 12:23:33;;;;;;;;;13.00;12.50;;;;;34.46;33.20;98414.94;6337465;27;96456;-63
2021/06/29 12:26:48;;;;;;;;;13.00;12.20;;;;;34.31;32.86;98416.84;6259938;27;96667;-63
2021/06/29 12:30:25;;;;;;;;;11.20;11.00;;;;;34.21;32.97;98405.63;6260333;27;96185;-63
2021/06/29 12:33:42;;;;;;;;;14.00;14.00;;;;;34.53;34.05;98412.19;6285654;27;96879;-63
2021/06/29 12:37:04;;;;;;;;;13.00;12.00;;;;;34.85;32.87;98398.34;6260418;27;96252;-63
2021/06/29 12:40:22;;;;;;;;;14.00;13.00;;;;;34.84;33.00;98393.97;6259611;27;96863;-62
2021/06/29 12:43:39;;;;;;;;;13.00;13.00;;;;;34.63;32.06;98393.84;6335395;27;96282;-62
2021/06/29 12:46:55;;;;;;;;;12.00;11.00;;;;;34.44;31.50;98386.56;6335903;27;97136;-62
2021/06/29 12:50:11;;;;;;;;;13.75;13.00;;;;;34.62;32.05;98384.63;6253385;27;96388;-62
2021/06/29 12:53:26;;;;;;;;;14.40;13.40;;;;;34.48;31.14;98376.16;6254605;27;96691;-62
2021/06/29 12:56:45;;;;;;;;;13.00;12.00;;;;;34.25;31.85;98368.06;6255018;27;96852;-62
2021/06/29 13:00:01;;;;;;;;;13.00;12.40;;;;;34.22;31.69;98366.03;6254101;27;96939;-62
2021/06/29 13:03:20;;;;;;;;;13.00;13.00;;;;;34.07;31.06;98358.72;6254159;27;96387;-62
2021/06/29 13:06:36;;;;;;;;;13.00;13.00;;;;;34.33;32.87;98361.31;6255824;27;96645;-63
2021/06/29 13:09:51;;;;;;;;;12.80;12.00;;;;;34.55;31.98;98336.22;6280955;27;96649;-62
2021/06/29 13:13:16;;;;;;;;;12.00;12.00;;;;;34.68;31.71;98335.50;6280557;27;96799;-62
2021/06/29 13:16:33;;;;;;;;;12.00;12.00;;;;;34.92;31.13;98342.38;6280828;27;96441;-63
2021/06/29 13:19:53;;;;;;;;;15.60;14.00;;;;;34.88;31.51;98323.94;6255705;27;97125;-64
2021/06/29 13:23:10;;;;;;;;;13.60;13.00;;;;;35.14;31.48;98332.78;6255525;27;96328;-63
2021/06/29 13:26:25;;;;;;;;;12.40;11.80;;;;;35.13;30.55;98336.00;6255482;27;96811;-62
2021/06/29 13:29:41;;;;;;;;;14.20;13.20;;;;;34.99;31.98;98336.75;6243598;27;96517;-64
2021/06/29 13:32:56;;;;;;;;;14.40;14.00;;;;;35.10;31.94;98332.00;6214135;27;96515;-62
2021/06/29 13:36:12;;;;;;;;;14.40;12.40;;;;;35.00;31.09;98329.97;6245730;27;97042;-63
2021/06/29 13:39:31;;;;;;;;;13.00;12.60;;;;;35.04;32.52;98325.16;6228146;27;96622;-63
2021/06/29 13:43:08;;;;;;;;;13.40;13.40;;;;;35.18;31.65;98314.03;6261961;27;96307;-63
2021/06/29 13:46:24;;;;;;;;;13.00;12.60;;;;;35.17;31.30;98308.81;6228748;27;96617;-62
2021/06/29 13:49:39;;;;;;;;;12.20;12.00;;;;;35.22;31.82;98296.41;6249252;27;96523;-63
2021/06/29 13:52:56;;;;;;;;;12.00;12.00;;;;;35.24;31.47;98294.81;6251220;27;96933;-63
2021/06/29 13:56:14;;;;;;;;;13.20;13.20;;;;;35.20;31.20;98292.00;6279361;27;96782;-62
2021/06/29 13:59:37;;;;;;;;;13.00;13.00;;;;;35.22;31.46;98296.41;6312690;27;96489;-63
2021/06/29 14:03:16;;;;;;;;;12.20;11.80;;;;;35.25;31.48;98293.59;6282135;27;96365;-63
2021/06/29 14:06:34;;;;;;;;;11.00;11.00;;;;;35.36;32.18;98290.81;6310594;27;97069;-62
2021/06/29 14:09:49;;;;;;;;;14.00;14.00;;;;;35.43;31.70;98288.78;6257979;27;96273;-63
2021/06/29 14:13:23;;;;;;;;;13.20;13.20;;;;;35.27;32.14;98259.59;6309123;27;96640;-62
2021/06/29 14:16:39;;;;;;;;;12.60;12.60;;;;;35.49;32.07;98284.41;6229493;27;98365;-62
2021/06/29 14:19:53;;;;;;;;;12.20;11.00;;;;;35.61;32.22;98269.97;6273427;27;96468;-63
2021/06/29 14:23:08;;;;;;;;;13.00;12.00;;;;;35.35;32.15;98259.19;6326183;27;96843;-63
2021/06/29 14:26:25;;;;;;;;;16.00;14.00;;;;;34.93;31.94;98251.53;6249305;27;96357;-63
2021/06/29 14:29:43;;;;;;;;;13.50;13.00;;;;;34.76;32.41;98266.31;6248605;27;96589;-62
2021/06/29 14:32:58;;;;;;;;;14.75;14.00;;;;;34.34;33.00;98250.97;6240976;27;96817;-62
2021/06/29 14:36:14;;;;;;;;;12.00;12.00;;;;;34.33;32.78;98251.38;6256734;27;96382;-63
2021/06/29 14:39:28;;;;;;;;;13.00;13.00;;;;;34.32;32.68;98260.94;6253582;27;96270;-62
2021/06/29 14:53:07;;;;;;;;;14.00;13.00;;;;;34.28;32.71;98254.53;6301360;27;96156;-62
2021/06/29 14:56:22;;;;;;;;;13.20;13.00;;;;;34.26;32.21;98234.53;6241732;27;96400;-61
2021/06/29 14:59:37;;;;;;;;;12.00;12.00;;;;;34.19;32.59;98243.72;6255083;27;96250;-60
2021/06/29 15:02:52;;;;;;;;;13.00;13.00;;;;;33.98;32.55;98249.19;6235291;27;96633;-61
2021/06/29 15:06:07;;;;;;;;;13.00;12.00;;;;;33.78;32.97;98245.88;6264011;27;97290;-63
2021/06/29 15:09:21;;;;;;;;;12.00;12.00;;;;;33.80;32.87;98239.91;6256417;27;96320;-60
2021/06/29 15:12:38;;;;;;;;;13.00;12.50;;;;;33.94;33.51;98235.19;6253692;27;96452;-60
2021/06/29 15:15:53;;;;;;;;;13.00;12.00;;;;;34.02;33.40;98233.22;6256152;27;96246;-62
2021/06/29 15:19:08;;;;;;;;;12.00;11.20;;;;;34.03;33.01;98228.41;6330596;27;96620;-62
2021/06/29 15:22:23;;;;;;;;;11.00;11.00;;;;;34.04;33.14;98207.66;6249658;27;96714;-61
2021/06/29 15:25:38;;;;;;;;;12.00;12.00;;;;;34.18;33.67;98199.34;6258649;27;96556;-61
2021/06/29 15:28:53;;;;;;;;;14.60;13.40;;;;;34.14;33.33;98199.31;6227851;28;96320;-63
2021/06/29 15:32:09;;;;;;;;;13.00;12.00;;;;;34.25;33.38;98196.59;6331473;27;96687;-61
2021/06/29 15:35:24;;;;;;;;;14.00;13.50;;;;;34.20;33.21;98194.16;6255871;27;96865;-62
2021/06/29 15:38:38;;;;;;;;;13.00;12.40;;;;;34.22;33.64;98192.56;6234338;28;96513;-61
2021/06/29 15:41:53;;;;;;;;;13.00;13.00;;;;;34.29;33.30;98183.41;6336043;27;96841;-61
2021/06/29 15:45:11;;;;;;;;;14.00;12.00;;;;;34.24;33.35;98179.00;6255004;27;96262;-61
2021/06/29 15:48:26;;;;;;;;;14.50;14.00;;;;;34.03;33.30;98159.31;6251284;27;96474;-61
2021/06/29 15:51:41;;;;;;;;;13.20;12.80;;;;;34.00;33.66;98185.28;6258467;27;96589;-63
2021/06/29 15:54:56;;;;;;;;;13.00;13.00;;;;;33.78;34.10;98189.16;6335389;27;96623;-64
2021/06/29 15:58:12;;;;;;;;;13.00;13.00;;;;;33.68;34.49;98187.91;6255955;27;96790;-62
2021/06/29 16:01:26;;;;;;;;;12.50;12.00;;;;;33.82;34.99;98201.16;6342805;27;96481;-64
2021/06/29 16:04:41;;;;;;;;;14.25;14.00;;;;;33.91;34.78;98174.47;6255831;27;96462;-61
2021/06/29 16:07:56;;;;;;;;;12.60;12.60;;;;;33.91;34.53;98163.28;6253350;27;96985;-63
2021/06/29 16:11:11;;;;;;;;;14.00;14.00;;;;;34.03;35.04;98164.09;6256694;27;96505;-62
2021/06/29 16:14:26;;;;;;;;;14.50;13.75;;;;;33.97;35.07;98149.69;6332337;27;96415;-63